sensor_id;sensor_type;location;lat;lon;timestamp;P1;durP1;ratioP1;P2;durP2;ratioP2
47161;SDS011;32921;53.256;8.198;2023-03-24T00:01:50;16.42;;;7.20;;
47161;SDS011;32921;53.256;8.198;2023-03-24T00:04:16;16.95;;;7.03;;
47161;SDS011;32921;53.256;8.198;2023-03-24T00:06:42;17.98;;;7.50;;
47161;SDS011;32921;53.256;8.198;2023-03-24T00:09:08;14.13;;;6.93;;
47161;SDS011;32921;53.256;8.198;2023-03-24T00:11:35;17.35;;;7.53;;
47161;SDS011;32921;53.256;8.198;2023-03-24T00:14:01;16.52;;;7.65;;
47161;SDS011;32921;53.256;8.198;2023-03-24T00:16:27;12.43;;;6.72;;
47161;SDS011;32921;53.256;8.198;2023-03-24T00:18:54;14.73;;;7.05;;
47161;SDS011;32921;53.256;8.198;2023-03-24T00:21:20;16.98;;;7.88;;
47161;SDS011;32921;53.256;8.198;2023-03-24T00:23:48;14.32;;;7.95;;
47161;SDS011;32921;53.256;8.198;2023-03-24T00:26:15;16.85;;;7.45;;
47161;SDS011;32921;53.256;8.198;2023-03-24T00:28:42;15.52;;;7.03;;
47161;SDS011;32921;53.256;8.198;2023-03-24T00:31:09;13.30;;;6.93;;
47161;SDS011;32921;53.256;8.198;2023-03-24T00:33:39;18.17;;;7.28;;
47161;SDS011;32921;53.256;8.198;2023-03-24T00:36:06;16.88;;;6.93;;
47161;SDS011;32921;53.256;8.198;2023-03-24T00:38:35;15.55;;;7.18;;
47161;SDS011;32921;53.256;8.198;2023-03-24T00:41:03;15.02;;;6.75;;
47161;SDS011;32921;53.256;8.198;2023-03-24T00:43:29;14.15;;;6.38;;
47161;SDS011;32921;53.256;8.198;2023-03-24T00:45:59;16.20;;;7.13;;
47161;SDS011;32921;53.256;8.198;2023-03-24T00:48:30;16.00;;;7.45;;
47161;SDS011;32921;53.256;8.198;2023-03-24T00:50:56;16.02;;;6.80;;
47161;SDS011;32921;53.256;8.198;2023-03-24T00:53:24;19.52;;;6.88;;
47161;SDS011;32921;53.256;8.198;2023-03-24T00:55:53;16.30;;;6.45;;
47161;SDS011;32921;53.256;8.198;2023-03-24T00:58:19;16.08;;;7.10;;
47161;SDS011;32921;53.256;8.198;2023-03-24T01:00:46;15.70;;;6.90;;
47161;SDS011;32921;53.256;8.198;2023-03-24T01:03:18;15.65;;;7.03;;
47161;SDS011;32921;53.256;8.198;2023-03-24T01:05:51;13.32;;;5.82;;
47161;SDS011;32921;53.256;8.198;2023-03-24T01:08:25;14.25;;;6.70;;
47161;SDS011;32921;53.256;8.198;2023-03-24T01:10:52;15.52;;;7.13;;
47161;SDS011;32921;53.256;8.198;2023-03-24T01:13:25;14.15;;;7.60;;
47161;SDS011;32921;53.256;8.198;2023-03-24T01:15:53;14.63;;;7.07;;
47161;SDS011;32921;53.256;8.198;2023-03-24T01:18:19;13.45;;;7.53;;
47161;SDS011;32921;53.256;8.198;2023-03-24T01:20:47;16.73;;;8.13;;
47161;SDS011;32921;53.256;8.198;2023-03-24T01:23:15;15.35;;;8.30;;
47161;SDS011;32921;53.256;8.198;2023-03-24T01:25:46;15.35;;;8.68;;
47161;SDS011;32921;53.256;8.198;2023-03-24T01:28:13;15.95;;;7.72;;
47161;SDS011;32921;53.256;8.198;2023-03-24T01:30:41;15.05;;;8.20;;
47161;SDS011;32921;53.256;8.198;2023-03-24T01:33:07;15.48;;;7.63;;
47161;SDS011;32921;53.256;8.198;2023-03-24T01:35:33;17.25;;;8.55;;
47161;SDS011;32921;53.256;8.198;2023-03-24T01:38:00;15.73;;;9.02;;
47161;SDS011;32921;53.256;8.198;2023-03-24T01:40:30;18.33;;;8.98;;
47161;SDS011;32921;53.256;8.198;2023-03-24T01:42:57;16.75;;;8.00;;
47161;SDS011;32921;53.256;8.198;2023-03-24T01:48:35;19.13;;;9.57;;
47161;SDS011;32921;53.256;8.198;2023-03-24T01:56:36;14.20;;;8.05;;
47161;SDS011;32921;53.256;8.198;2023-03-24T01:59:05;14.57;;;9.05;;
47161;SDS011;32921;53.256;8.198;2023-03-24T02:01:34;17.45;;;9.60;;
47161;SDS011;32921;53.256;8.198;2023-03-24T02:04:01;18.90;;;11.02;;
47161;SDS011;32921;53.256;8.198;2023-03-24T02:06:29;20.65;;;10.80;;
47161;SDS011;32921;53.256;8.198;2023-03-24T02:08:59;21.98;;;11.57;;
47161;SDS011;32921;53.256;8.198;2023-03-24T02:11:26;19.50;;;11.25;;
47161;SDS011;32921;53.256;8.198;2023-03-24T02:13:54;19.85;;;11.40;;
47161;SDS011;32921;53.256;8.198;2023-03-24T02:19:04;18.80;;;11.70;;
47161;SDS011;32921;53.256;8.198;2023-03-24T02:27:35;17.58;;;11.30;;
47161;SDS011;32921;53.256;8.198;2023-03-24T02:30:42;18.27;;;10.35;;
47161;SDS011;32921;53.256;8.198;2023-03-24T02:44:56;18.67;;;11.13;;
47161;SDS011;32921;53.256;8.198;2023-03-24T02:56:29;18.55;;;12.10;;
47161;SDS011;32921;53.256;8.198;2023-03-24T02:59:16;19.17;;;13.07;;
47161;SDS011;32921;53.256;8.198;2023-03-24T03:01:48;20.55;;;12.32;;
47161;SDS011;32921;53.256;8.198;2023-03-24T03:04:23;21.13;;;14.48;;
47161;SDS011;32921;53.256;8.198;2023-03-24T03:06:57;21.35;;;13.65;;
47161;SDS011;32921;53.256;8.198;2023-03-24T03:09:26;17.85;;;13.75;;
47161;SDS011;32921;53.256;8.198;2023-03-24T03:11:54;20.08;;;14.73;;
47161;SDS011;32921;53.256;8.198;2023-03-24T03:14:36;17.30;;;14.15;;
47161;SDS011;32921;53.256;8.198;2023-03-24T03:17:12;18.50;;;14.20;;
47161;SDS011;32921;53.256;8.198;2023-03-24T03:19:53;20.50;;;14.05;;
47161;SDS011;32921;53.256;8.198;2023-03-24T03:22:23;17.77;;;13.75;;
47161;SDS011;32921;53.256;8.198;2023-03-24T03:24:53;20.50;;;13.82;;
47161;SDS011;32921;53.256;8.198;2023-03-24T03:27:23;18.95;;;14.38;;
47161;SDS011;32921;53.256;8.198;2023-03-24T03:30:00;18.13;;;13.18;;
47161;SDS011;32921;53.256;8.198;2023-03-24T03:32:30;17.20;;;13.02;;
47161;SDS011;32921;53.256;8.198;2023-03-24T03:37:49;17.67;;;13.40;;
47161;SDS011;32921;53.256;8.198;2023-03-24T03:40:21;19.50;;;13.35;;
47161;SDS011;32921;53.256;8.198;2023-03-24T03:42:50;18.95;;;12.95;;
47161;SDS011;32921;53.256;8.198;2023-03-24T03:45:16;20.27;;;12.82;;
47161;SDS011;32921;53.256;8.198;2023-03-24T03:47:42;16.50;;;12.30;;
47161;SDS011;32921;53.256;8.198;2023-03-24T03:50:08;11.70;;;8.30;;
47161;SDS011;32921;53.256;8.198;2023-03-24T03:52:34;16.15;;;12.82;;
47161;SDS011;32921;53.256;8.198;2023-03-24T03:55:04;17.05;;;11.65;;
47161;SDS011;32921;53.256;8.198;2023-03-24T03:57:30;14.27;;;12.27;;
47161;SDS011;32921;53.256;8.198;2023-03-24T03:59:57;16.38;;;12.05;;
47161;SDS011;32921;53.256;8.198;2023-03-24T04:05:18;17.13;;;13.07;;
47161;SDS011;32921;53.256;8.198;2023-03-24T04:10:34;16.20;;;11.63;;
47161;SDS011;32921;53.256;8.198;2023-03-24T04:13:24;16.88;;;12.30;;
47161;SDS011;32921;53.256;8.198;2023-03-24T04:16:13;17.38;;;12.30;;
47161;SDS011;32921;53.256;8.198;2023-03-24T04:18:50;12.52;;;10.15;;
47161;SDS011;32921;53.256;8.198;2023-03-24T04:21:26;16.08;;;10.63;;
47161;SDS011;32921;53.256;8.198;2023-03-24T04:24:29;15.15;;;11.10;;
47161;SDS011;32921;53.256;8.198;2023-03-24T04:29:39;15.98;;;12.00;;
47161;SDS011;32921;53.256;8.198;2023-03-24T04:32:21;14.57;;;11.02;;
47161;SDS011;32921;53.256;8.198;2023-03-24T04:35:10;14.05;;;10.77;;
47161;SDS011;32921;53.256;8.198;2023-03-24T04:37:50;14.38;;;10.48;;
47161;SDS011;32921;53.256;8.198;2023-03-24T04:40:17;12.63;;;10.02;;
47161;SDS011;32921;53.256;8.198;2023-03-24T04:42:47;12.32;;;10.15;;
47161;SDS011;32921;53.256;8.198;2023-03-24T04:45:16;13.40;;;9.98;;
47161;SDS011;32921;53.256;8.198;2023-03-24T04:47:50;12.32;;;9.45;;
47161;SDS011;32921;53.256;8.198;2023-03-24T04:50:37;13.57;;;9.40;;
47161;SDS011;32921;53.256;8.198;2023-03-24T04:53:04;12.73;;;9.50;;
47161;SDS011;32921;53.256;8.198;2023-03-24T04:58:18;10.70;;;8.25;;
47161;SDS011;32921;53.256;8.198;2023-03-24T05:00:45;14.93;;;9.82;;
47161;SDS011;32921;53.256;8.198;2023-03-24T05:03:11;9.93;;;7.63;;
47161;SDS011;32921;53.256;8.198;2023-03-24T05:05:39;10.48;;;8.50;;
47161;SDS011;32921;53.256;8.198;2023-03-24T05:08:09;10.10;;;6.78;;
47161;SDS011;32921;53.256;8.198;2023-03-24T05:10:35;11.23;;;8.15;;
47161;SDS011;32921;53.256;8.198;2023-03-24T05:13:02;10.23;;;8.02;;
47161;SDS011;32921;53.256;8.198;2023-03-24T05:15:28;11.88;;;7.38;;
47161;SDS011;32921;53.256;8.198;2023-03-24T05:17:54;12.25;;;7.25;;
47161;SDS011;32921;53.256;8.198;2023-03-24T05:20:20;12.13;;;5.97;;
47161;SDS011;32921;53.256;8.198;2023-03-24T05:22:47;7.18;;;4.70;;
47161;SDS011;32921;53.256;8.198;2023-03-24T05:25:13;7.63;;;4.03;;
47161;SDS011;32921;53.256;8.198;2023-03-24T05:27:40;5.63;;;3.65;;
47161;SDS011;32921;53.256;8.198;2023-03-24T05:30:06;7.93;;;3.60;;
47161;SDS011;32921;53.256;8.198;2023-03-24T05:32:32;5.38;;;3.17;;
47161;SDS011;32921;53.256;8.198;2023-03-24T05:34:58;5.53;;;2.90;;
47161;SDS011;32921;53.256;8.198;2023-03-24T05:37:23;4.05;;;2.38;;
47161;SDS011;32921;53.256;8.198;2023-03-24T05:39:55;7.18;;;2.53;;
47161;SDS011;32921;53.256;8.198;2023-03-24T05:42:21;8.18;;;2.33;;
47161;SDS011;32921;53.256;8.198;2023-03-24T05:44:47;8.43;;;2.40;;
47161;SDS011;32921;53.256;8.198;2023-03-24T05:47:13;8.00;;;2.10;;
47161;SDS011;32921;53.256;8.198;2023-03-24T05:49:43;7.63;;;1.95;;
47161;SDS011;32921;53.256;8.198;2023-03-24T05:52:10;6.53;;;1.75;;
47161;SDS011;32921;53.256;8.198;2023-03-24T05:54:36;8.93;;;2.08;;
47161;SDS011;32921;53.256;8.198;2023-03-24T05:57:03;7.82;;;2.25;;
47161;SDS011;32921;53.256;8.198;2023-03-24T05:59:31;6.20;;;1.90;;
47161;SDS011;32921;53.256;8.198;2023-03-24T06:01:58;8.90;;;2.00;;
47161;SDS011;32921;53.256;8.198;2023-03-24T06:04:24;5.38;;;1.63;;
47161;SDS011;32921;53.256;8.198;2023-03-24T06:06:53;5.95;;;1.60;;
47161;SDS011;32921;53.256;8.198;2023-03-24T06:09:19;6.80;;;1.95;;
47161;SDS011;32921;53.256;8.198;2023-03-24T06:11:45;11.18;;;2.33;;
47161;SDS011;32921;53.256;8.198;2023-03-24T06:14:11;8.52;;;1.80;;
47161;SDS011;32921;53.256;8.198;2023-03-24T06:16:37;4.25;;;1.50;;
47161;SDS011;32921;53.256;8.198;2023-03-24T06:19:02;7.10;;;1.48;;
47161;SDS011;32921;53.256;8.198;2023-03-24T06:21:30;7.35;;;1.80;;
47161;SDS011;32921;53.256;8.198;2023-03-24T06:23:57;9.55;;;1.70;;
47161;SDS011;32921;53.256;8.198;2023-03-24T06:26:23;8.75;;;2.35;;
47161;SDS011;32921;53.256;8.198;2023-03-24T06:28:49;7.82;;;1.70;;
47161;SDS011;32921;53.256;8.198;2023-03-24T06:31:19;8.80;;;2.08;;
47161;SDS011;32921;53.256;8.198;2023-03-24T06:33:46;7.50;;;2.00;;
47161;SDS011;32921;53.256;8.198;2023-03-24T06:36:12;6.88;;;1.80;;
47161;SDS011;32921;53.256;8.198;2023-03-24T06:38:39;6.43;;;1.50;;
47161;SDS011;32921;53.256;8.198;2023-03-24T06:41:05;7.00;;;1.42;;
47161;SDS011;32921;53.256;8.198;2023-03-24T06:43:31;6.82;;;1.60;;
47161;SDS011;32921;53.256;8.198;2023-03-24T06:45:57;8.20;;;1.70;;
47161;SDS011;32921;53.256;8.198;2023-03-24T06:48:23;5.18;;;1.50;;
47161;SDS011;32921;53.256;8.198;2023-03-24T06:50:53;5.22;;;1.25;;
47161;SDS011;32921;53.256;8.198;2023-03-24T06:53:19;7.80;;;1.42;;
47161;SDS011;32921;53.256;8.198;2023-03-24T06:55:46;6.70;;;1.50;;
47161;SDS011;32921;53.256;8.198;2023-03-24T06:58:12;6.40;;;1.20;;
47161;SDS011;32921;53.256;8.198;2023-03-24T07:00:39;7.43;;;1.70;;
47161;SDS011;32921;53.256;8.198;2023-03-24T07:03:05;7.40;;;1.40;;
47161;SDS011;32921;53.256;8.198;2023-03-24T07:05:32;12.38;;;2.00;;
47161;SDS011;32921;53.256;8.198;2023-03-24T07:08:02;5.72;;;1.48;;
47161;SDS011;32921;53.256;8.198;2023-03-24T07:10:28;11.75;;;1.70;;
47161;SDS011;32921;53.256;8.198;2023-03-24T07:12:53;11.55;;;2.00;;
47161;SDS011;32921;53.256;8.198;2023-03-24T07:15:19;9.27;;;1.75;;
47161;SDS011;32921;53.256;8.198;2023-03-24T07:17:45;9.32;;;1.60;;
47161;SDS011;32921;53.256;8.198;2023-03-24T07:20:10;9.75;;;2.22;;
47161;SDS011;32921;53.256;8.198;2023-03-24T07:22:36;11.82;;;2.05;;
47161;SDS011;32921;53.256;8.198;2023-03-24T07:25:02;10.05;;;1.88;;
47161;SDS011;32921;53.256;8.198;2023-03-24T07:27:32;12.35;;;2.42;;
47161;SDS011;32921;53.256;8.198;2023-03-24T07:29:58;12.45;;;2.33;;
47161;SDS011;32921;53.256;8.198;2023-03-24T07:32:24;10.80;;;1.83;;
47161;SDS011;32921;53.256;8.198;2023-03-24T07:34:52;10.25;;;2.10;;
47161;SDS011;32921;53.256;8.198;2023-03-24T07:37:18;10.00;;;2.28;;
47161;SDS011;32921;53.256;8.198;2023-03-24T07:39:44;10.45;;;1.80;;
47161;SDS011;32921;53.256;8.198;2023-03-24T07:42:10;12.00;;;2.95;;
47161;SDS011;32921;53.256;8.198;2023-03-24T07:44:35;14.52;;;2.20;;
47161;SDS011;32921;53.256;8.198;2023-03-24T07:47:01;10.70;;;2.30;;
47161;SDS011;32921;53.256;8.198;2023-03-24T07:49:26;12.75;;;2.85;;
47161;SDS011;32921;53.256;8.198;2023-03-24T07:51:52;14.95;;;2.60;;
47161;SDS011;32921;53.256;8.198;2023-03-24T07:54:17;10.40;;;1.92;;
47161;SDS011;32921;53.256;8.198;2023-03-24T07:56:43;8.93;;;2.22;;
47161;SDS011;32921;53.256;8.198;2023-03-24T07:59:08;12.32;;;2.10;;
47161;SDS011;32921;53.256;8.198;2023-03-24T08:01:35;12.77;;;2.45;;
47161;SDS011;32921;53.256;8.198;2023-03-24T08:04:02;11.77;;;2.28;;
47161;SDS011;32921;53.256;8.198;2023-03-24T08:06:30;11.43;;;2.28;;
47161;SDS011;32921;53.256;8.198;2023-03-24T08:08:56;10.60;;;2.30;;
47161;SDS011;32921;53.256;8.198;2023-03-24T08:11:21;11.80;;;1.92;;
47161;SDS011;32921;53.256;8.198;2023-03-24T08:13:47;11.82;;;2.22;;
47161;SDS011;32921;53.256;8.198;2023-03-24T08:16:12;10.80;;;1.83;;
47161;SDS011;32921;53.256;8.198;2023-03-24T08:18:38;11.00;;;1.80;;
47161;SDS011;32921;53.256;8.198;2023-03-24T08:21:03;10.52;;;1.92;;
47161;SDS011;32921;53.256;8.198;2023-03-24T08:23:30;11.35;;;1.75;;
47161;SDS011;32921;53.256;8.198;2023-03-24T08:25:55;10.60;;;2.00;;
47161;SDS011;32921;53.256;8.198;2023-03-24T08:28:21;15.55;;;2.05;;
47161;SDS011;32921;53.256;8.198;2023-03-24T08:30:47;10.43;;;1.92;;
47161;SDS011;32921;53.256;8.198;2023-03-24T08:33:13;10.48;;;2.53;;
47161;SDS011;32921;53.256;8.198;2023-03-24T08:35:40;10.85;;;2.08;;
47161;SDS011;32921;53.256;8.198;2023-03-24T08:38:07;11.23;;;2.10;;
47161;SDS011;32921;53.256;8.198;2023-03-24T08:40:34;8.80;;;1.80;;
47161;SDS011;32921;53.256;8.198;2023-03-24T08:43:02;11.82;;;2.38;;
47161;SDS011;32921;53.256;8.198;2023-03-24T08:45:29;9.27;;;1.88;;
47161;SDS011;32921;53.256;8.198;2023-03-24T08:47:56;8.57;;;1.80;;
47161;SDS011;32921;53.256;8.198;2023-03-24T08:50:25;12.57;;;2.00;;
47161;SDS011;32921;53.256;8.198;2023-03-24T08:52:53;11.82;;;1.88;;
47161;SDS011;32921;53.256;8.198;2023-03-24T08:55:20;13.15;;;2.15;;
47161;SDS011;32921;53.256;8.198;2023-03-24T08:57:46;9.13;;;1.73;;
47161;SDS011;32921;53.256;8.198;2023-03-24T09:00:13;12.48;;;2.08;;
47161;SDS011;32921;53.256;8.198;2023-03-24T09:02:40;9.35;;;1.80;;
47161;SDS011;32921;53.256;8.198;2023-03-24T09:05:10;9.48;;;2.00;;
47161;SDS011;32921;53.256;8.198;2023-03-24T09:07:36;12.63;;;1.85;;
47161;SDS011;32921;53.256;8.198;2023-03-24T09:10:03;17.20;;;3.92;;
47161;SDS011;32921;53.256;8.198;2023-03-24T09:12:32;9.07;;;1.80;;
47161;SDS011;32921;53.256;8.198;2023-03-24T09:14:59;15.10;;;1.88;;
47161;SDS011;32921;53.256;8.198;2023-03-24T09:17:24;11.02;;;2.15;;
47161;SDS011;32921;53.256;8.198;2023-03-24T09:19:50;12.43;;;1.75;;
47161;SDS011;32921;53.256;8.198;2023-03-24T09:22:15;10.88;;;1.95;;
47161;SDS011;32921;53.256;8.198;2023-03-24T09:24:41;10.60;;;2.22;;
47161;SDS011;32921;53.256;8.198;2023-03-24T09:27:08;10.40;;;1.88;;
47161;SDS011;32921;53.256;8.198;2023-03-24T09:29:34;10.60;;;2.05;;
47161;SDS011;32921;53.256;8.198;2023-03-24T09:31:59;11.68;;;2.05;;
47161;SDS011;32921;53.256;8.198;2023-03-24T09:34:25;12.00;;;2.38;;
47161;SDS011;32921;53.256;8.198;2023-03-24T09:36:51;13.15;;;2.13;;
47161;SDS011;32921;53.256;8.198;2023-03-24T09:39:16;13.00;;;2.22;;
47161;SDS011;32921;53.256;8.198;2023-03-24T09:41:43;12.95;;;2.25;;
47161;SDS011;32921;53.256;8.198;2023-03-24T09:44:33;11.48;;;2.15;;
47161;SDS011;32921;53.256;8.198;2023-03-24T09:49:50;11.43;;;1.80;;
47161;SDS011;32921;53.256;8.198;2023-03-24T09:52:23;14.23;;;2.42;;
47161;SDS011;32921;53.256;8.198;2023-03-24T09:54:56;13.35;;;2.20;;
47161;SDS011;32921;53.256;8.198;2023-03-24T09:59:51;16.67;;;2.85;;
47161;SDS011;32921;53.256;8.198;2023-03-24T10:02:17;13.25;;;2.40;;
47161;SDS011;32921;53.256;8.198;2023-03-24T10:04:45;16.60;;;2.35;;
47161;SDS011;32921;53.256;8.198;2023-03-24T10:07:28;16.55;;;2.28;;
47161;SDS011;32921;53.256;8.198;2023-03-24T10:10:02;12.55;;;2.42;;
47161;SDS011;32921;53.256;8.198;2023-03-24T10:12:42;13.18;;;2.42;;
47161;SDS011;32921;53.256;8.198;2023-03-24T10:17:56;12.77;;;2.13;;
47161;SDS011;32921;53.256;8.198;2023-03-24T10:20:43;12.52;;;2.45;;
47161;SDS011;32921;53.256;8.198;2023-03-24T10:23:33;16.85;;;2.88;;
47161;SDS011;32921;53.256;8.198;2023-03-24T10:29:12;12.60;;;2.42;;
47161;SDS011;32921;53.256;8.198;2023-03-24T10:31:50;17.90;;;3.17;;
47161;SDS011;32921;53.256;8.198;2023-03-24T10:34:29;15.38;;;2.67;;
47161;SDS011;32921;53.256;8.198;2023-03-24T10:36:57;13.38;;;2.20;;
47161;SDS011;32921;53.256;8.198;2023-03-24T10:39:25;15.27;;;2.90;;
47161;SDS011;32921;53.256;8.198;2023-03-24T10:41:52;17.58;;;3.17;;
47161;SDS011;32921;53.256;8.198;2023-03-24T10:44:18;13.40;;;2.45;;
47161;SDS011;32921;53.256;8.198;2023-03-24T10:46:46;14.50;;;2.35;;
47161;SDS011;32921;53.256;8.198;2023-03-24T10:49:15;12.25;;;2.97;;
47161;SDS011;32921;53.256;8.198;2023-03-24T10:51:53;13.25;;;2.72;;
47161;SDS011;32921;53.256;8.198;2023-03-24T10:54:26;13.07;;;2.75;;
47161;SDS011;32921;53.256;8.198;2023-03-24T11:01:59;13.55;;;2.28;;
47161;SDS011;32921;53.256;8.198;2023-03-24T11:04:39;12.50;;;2.47;;
47161;SDS011;32921;53.256;8.198;2023-03-24T11:07:15;9.10;;;1.35;;
47161;SDS011;32921;53.256;8.198;2023-03-24T11:09:47;15.13;;;2.95;;
47161;SDS011;32921;53.256;8.198;2023-03-24T11:12:32;11.80;;;2.38;;
47161;SDS011;32921;53.256;8.198;2023-03-24T11:18:07;11.90;;;2.72;;
47161;SDS011;32921;53.256;8.198;2023-03-24T11:20:36;12.27;;;2.22;;
47161;SDS011;32921;53.256;8.198;2023-03-24T11:23:05;9.38;;;1.55;;
47161;SDS011;32921;53.256;8.198;2023-03-24T11:25:36;13.23;;;2.08;;
47161;SDS011;32921;53.256;8.198;2023-03-24T11:28:05;10.38;;;2.10;;
47161;SDS011;32921;53.256;8.198;2023-03-24T11:30:46;7.85;;;1.83;;
47161;SDS011;32921;53.256;8.198;2023-03-24T11:33:22;10.38;;;2.00;;
47161;SDS011;32921;53.256;8.198;2023-03-24T11:35:51;11.88;;;2.72;;
47161;SDS011;32921;53.256;8.198;2023-03-24T11:38:17;9.77;;;2.05;;
47161;SDS011;32921;53.256;8.198;2023-03-24T11:40:55;11.95;;;2.00;;
47161;SDS011;32921;53.256;8.198;2023-03-24T11:43:22;9.27;;;1.90;;
47161;SDS011;32921;53.256;8.198;2023-03-24T11:45:57;11.95;;;2.20;;
47161;SDS011;32921;53.256;8.198;2023-03-24T11:48:31;8.95;;;1.88;;
47161;SDS011;32921;53.256;8.198;2023-03-24T11:51:22;9.80;;;2.47;;
47161;SDS011;32921;53.256;8.198;2023-03-24T11:53:54;10.63;;;2.05;;
47161;SDS011;32921;53.256;8.198;2023-03-24T11:59:02;13.05;;;2.47;;
47161;SDS011;32921;53.256;8.198;2023-03-24T12:01:36;11.00;;;2.38;;
47161;SDS011;32921;53.256;8.198;2023-03-24T12:04:29;11.60;;;2.45;;
47161;SDS011;32921;53.256;8.198;2023-03-24T12:17:40;9.38;;;1.90;;
47161;SDS011;32921;53.256;8.198;2023-03-24T12:20:29;8.90;;;2.00;;
47161;SDS011;32921;53.256;8.198;2023-03-24T12:23:12;10.00;;;1.60;;
47161;SDS011;32921;53.256;8.198;2023-03-24T12:26:03;8.40;;;1.40;;
47161;SDS011;32921;53.256;8.198;2023-03-24T12:36:53;9.55;;;2.42;;
47161;SDS011;32921;53.256;8.198;2023-03-24T12:39:31;7.85;;;1.50;;
47161;SDS011;32921;53.256;8.198;2023-03-24T12:42:08;7.75;;;1.77;;
47161;SDS011;32921;53.256;8.198;2023-03-24T12:44:42;9.50;;;1.90;;
47161;SDS011;32921;53.256;8.198;2023-03-24T12:47:20;12.48;;;2.05;;
47161;SDS011;32921;53.256;8.198;2023-03-24T12:50:02;6.20;;;1.23;;
47161;SDS011;32921;53.256;8.198;2023-03-24T12:52:35;6.40;;;1.50;;
47161;SDS011;32921;53.256;8.198;2023-03-24T12:55:25;10.38;;;2.08;;
47161;SDS011;32921;53.256;8.198;2023-03-24T13:00:34;9.30;;;1.60;;
47161;SDS011;32921;53.256;8.198;2023-03-24T13:03:04;5.75;;;1.58;;
47161;SDS011;32921;53.256;8.198;2023-03-24T13:05:37;8.30;;;1.58;;
47161;SDS011;32921;53.256;8.198;2023-03-24T13:08:18;8.50;;;1.38;;
47161;SDS011;32921;53.256;8.198;2023-03-24T13:10:53;5.55;;;1.35;;
47161;SDS011;32921;53.256;8.198;2023-03-24T13:13:42;5.32;;;1.20;;
47161;SDS011;32921;53.256;8.198;2023-03-24T13:18:46;12.05;;;2.22;;
47161;SDS011;32921;53.256;8.198;2023-03-24T13:21:18;7.07;;;1.50;;
47161;SDS011;32921;53.256;8.198;2023-03-24T13:32:38;7.22;;;1.40;;
47161;SDS011;32921;53.256;8.198;2023-03-24T13:35:14;8.15;;;1.70;;
47161;SDS011;32921;53.256;8.198;2023-03-24T13:37:56;8.63;;;1.90;;
47161;SDS011;32921;53.256;8.198;2023-03-24T13:40:30;9.63;;;1.90;;
47161;SDS011;32921;53.256;8.198;2023-03-24T13:43:20;8.35;;;1.90;;
47161;SDS011;32921;53.256;8.198;2023-03-24T13:45:48;9.38;;;1.88;;
47161;SDS011;32921;53.256;8.198;2023-03-24T13:48:24;8.52;;;1.52;;
47161;SDS011;32921;53.256;8.198;2023-03-24T13:50:55;7.68;;;1.83;;
47161;SDS011;32921;53.256;8.198;2023-03-24T13:53:49;8.57;;;1.67;;
47161;SDS011;32921;53.256;8.198;2023-03-24T13:56:20;9.77;;;2.00;;
47161;SDS011;32921;53.256;8.198;2023-03-24T14:01:36;10.48;;;1.95;;
47161;SDS011;32921;53.256;8.198;2023-03-24T14:06:54;13.23;;;2.40;;
47161;SDS011;32921;53.256;8.198;2023-03-24T14:11:48;9.95;;;2.00;;
47161;SDS011;32921;53.256;8.198;2023-03-24T14:16:43;10.98;;;2.15;;
47161;SDS011;32921;53.256;8.198;2023-03-24T14:19:20;8.82;;;2.00;;
47161;SDS011;32921;53.256;8.198;2023-03-24T14:21:52;11.52;;;1.95;;
47161;SDS011;32921;53.256;8.198;2023-03-24T14:24:23;10.68;;;1.95;;
47161;SDS011;32921;53.256;8.198;2023-03-24T14:26:54;9.68;;;1.90;;
47161;SDS011;32921;53.256;8.198;2023-03-24T14:32:14;8.65;;;1.73;;
47161;SDS011;32921;53.256;8.198;2023-03-24T14:34:56;8.32;;;1.98;;
47161;SDS011;32921;53.256;8.198;2023-03-24T14:37:26;13.68;;;2.08;;
47161;SDS011;32921;53.256;8.198;2023-03-24T14:39:53;8.57;;;1.70;;
47161;SDS011;32921;53.256;8.198;2023-03-24T14:44:57;10.77;;;2.03;;
47161;SDS011;32921;53.256;8.198;2023-03-24T14:47:40;9.98;;;1.85;;
47161;SDS011;32921;53.256;8.198;2023-03-24T14:50:11;8.80;;;2.13;;
47161;SDS011;32921;53.256;8.198;2023-03-24T14:52:44;12.73;;;1.83;;
47161;SDS011;32921;53.256;8.198;2023-03-24T14:55:15;8.45;;;1.60;;
47161;SDS011;32921;53.256;8.198;2023-03-24T14:57:47;11.55;;;2.05;;
47161;SDS011;32921;53.256;8.198;2023-03-24T15:00:21;12.60;;;1.33;;
47161;SDS011;32921;53.256;8.198;2023-03-24T15:03:02;12.32;;;2.00;;
47161;SDS011;32921;53.256;8.198;2023-03-24T15:05:41;8.77;;;1.63;;
47161;SDS011;32921;53.256;8.198;2023-03-24T15:08:14;10.75;;;2.33;;
47161;SDS011;32921;53.256;8.198;2023-03-24T15:10:54;8.18;;;2.10;;
47161;SDS011;32921;53.256;8.198;2023-03-24T15:21:32;9.43;;;2.25;;
47161;SDS011;32921;53.256;8.198;2023-03-24T15:26:53;11.25;;;2.03;;
47161;SDS011;32921;53.256;8.198;2023-03-24T15:29:34;11.48;;;1.77;;
47161;SDS011;32921;53.256;8.198;2023-03-24T15:32:01;15.20;;;2.13;;
47161;SDS011;32921;53.256;8.198;2023-03-24T15:34:29;8.63;;;1.80;;
47161;SDS011;32921;53.256;8.198;2023-03-24T15:37:01;11.63;;;2.10;;
47161;SDS011;32921;53.256;8.198;2023-03-24T15:39:32;10.60;;;2.10;;
47161;SDS011;32921;53.256;8.198;2023-03-24T15:42:02;13.95;;;2.22;;
47161;SDS011;32921;53.256;8.198;2023-03-24T15:44:37;11.82;;;2.67;;
47161;SDS011;32921;53.256;8.198;2023-03-24T15:47:05;10.88;;;2.40;;
47161;SDS011;32921;53.256;8.198;2023-03-24T15:49:50;10.35;;;2.08;;
47161;SDS011;32921;53.256;8.198;2023-03-24T15:52:36;9.15;;;1.77;;
47161;SDS011;32921;53.256;8.198;2023-03-24T15:57:40;13.25;;;1.88;;
47161;SDS011;32921;53.256;8.198;2023-03-24T16:00:13;7.13;;;1.77;;
47161;SDS011;32921;53.256;8.198;2023-03-24T16:02:51;9.68;;;1.63;;
47161;SDS011;32921;53.256;8.198;2023-03-24T16:05:29;8.70;;;1.80;;
47161;SDS011;32921;53.256;8.198;2023-03-24T16:07:59;9.15;;;1.73;;
47161;SDS011;32921;53.256;8.198;2023-03-24T16:10:34;10.10;;;2.03;;
47161;SDS011;32921;53.256;8.198;2023-03-24T16:13:18;8.35;;;1.40;;
47161;SDS011;32921;53.256;8.198;2023-03-24T16:15:53;10.18;;;1.85;;
47161;SDS011;32921;53.256;8.198;2023-03-24T16:18:31;9.43;;;1.77;;
47161;SDS011;32921;53.256;8.198;2023-03-24T16:20:59;9.15;;;2.08;;
47161;SDS011;32921;53.256;8.198;2023-03-24T16:23:25;7.05;;;1.55;;
47161;SDS011;32921;53.256;8.198;2023-03-24T16:25:51;9.98;;;1.90;;
47161;SDS011;32921;53.256;8.198;2023-03-24T16:28:17;9.77;;;1.67;;
47161;SDS011;32921;53.256;8.198;2023-03-24T16:30:46;8.32;;;1.50;;
47161;SDS011;32921;53.256;8.198;2023-03-24T16:33:17;9.23;;;2.00;;
47161;SDS011;32921;53.256;8.198;2023-03-24T16:35:44;7.85;;;1.80;;
47161;SDS011;32921;53.256;8.198;2023-03-24T16:38:11;9.18;;;1.73;;
47161;SDS011;32921;53.256;8.198;2023-03-24T16:40:38;11.40;;;1.80;;
47161;SDS011;32921;53.256;8.198;2023-03-24T16:43:07;6.05;;;1.67;;
47161;SDS011;32921;53.256;8.198;2023-03-24T16:45:33;10.50;;;2.25;;
47161;SDS011;32921;53.256;8.198;2023-03-24T16:47:59;13.55;;;1.65;;
47161;SDS011;32921;53.256;8.198;2023-03-24T16:50:48;8.68;;;1.92;;
47161;SDS011;32921;53.256;8.198;2023-03-24T16:53:14;8.43;;;1.65;;
47161;SDS011;32921;53.256;8.198;2023-03-24T16:55:39;9.02;;;1.73;;
47161;SDS011;32921;53.256;8.198;2023-03-24T16:58:05;5.80;;;1.77;;
47161;SDS011;32921;53.256;8.198;2023-03-24T17:00:32;6.10;;;1.40;;
47161;SDS011;32921;53.256;8.198;2023-03-24T17:03:01;11.15;;;1.92;;
47161;SDS011;32921;53.256;8.198;2023-03-24T17:05:29;9.60;;;1.75;;
47161;SDS011;32921;53.256;8.198;2023-03-24T17:07:59;6.22;;;1.98;;
47161;SDS011;32921;53.256;8.198;2023-03-24T17:10:25;6.63;;;1.58;;
47161;SDS011;32921;53.256;8.198;2023-03-24T17:12:51;8.02;;;1.75;;
47161;SDS011;32921;53.256;8.198;2023-03-24T17:15:20;11.48;;;1.70;;